Time;durP1;ratioP1;P1;durP2;ratioP2;P2;SDS_P1;SDS_P2;PMS_P1;PMS_P2;Temp;Humidity;BMP_temperature;BMP_pressure;BME280_temperature;BME280_humidity;BME280_pressure;Samples;Min_cycle;Max_cycle;Signal;HPM_P1;HPM_P2
2023/06/08 00:01:25;;;;;;;28.30;15.05;;;;;;;;;;5056540;28;20366;-79
2023/06/08 00:03:52;;;;;;;29.50;14.15;;;;;;;;;;5074223;28;20039;-79
2023/06/08 00:06:20;;;;;;;29.92;14.07;;;;;;;;;;5072496;28;20035;-79
2023/06/08 00:08:46;;;;;;;35.05;15.70;;;;;;;;;;5073067;28;20028;-78
2023/06/08 00:11:11;;;;;;;31.40;14.25;;;;;;;;;;5072958;28;20043;-78
2023/06/08 00:13:37;;;;;;;27.35;14.95;;;;;;;;;;5072645;28;20430;-78
2023/06/08 00:16:03;;;;;;;27.30;13.98;;;;;;;;;;5072782;28;20020;-78
2023/06/08 00:18:30;;;;;;;26.90;14.05;;;;;;;;;;5073992;28;20020;-79
2023/06/08 00:20:58;;;;;;;26.88;13.90;;;;;;;;;;5056389;28;20017;-78
2023/06/08 00:23:24;;;;;;;31.67;13.63;;;;;;;;;;5074498;28;20295;-79
2023/06/08 00:25:49;;;;;;;33.55;14.18;;;;;;;;;;5073996;28;20082;-79
2023/06/08 00:28:15;;;;;;;29.85;14.88;;;;;;;;;;5055969;28;20035;-78
2023/06/08 00:30:41;;;;;;;28.65;14.55;;;;;;;;;;5055952;28;20093;-78
2023/06/08 00:33:06;;;;;;;33.38;15.45;;;;;;;;;;5072632;28;20029;-79
2023/06/08 00:35:32;;;;;;;34.78;14.65;;;;;;;;;;5072783;28;20028;-78
2023/06/08 00:37:57;;;;;;;32.35;14.23;;;;;;;;;;5073643;28;20032;-78
2023/06/08 00:40:22;;;;;;;34.40;14.73;;;;;;;;;;5074024;28;20390;-78
2023/06/08 00:42:49;;;;;;;35.03;14.77;;;;;;;;;;5073459;28;20438;-78
2023/06/08 00:45:14;;;;;;;32.20;13.63;;;;;;;;;;5039462;28;20101;-79
2023/06/08 00:47:40;;;;;;;35.95;14.13;;;;;;;;;;5072464;28;20438;-79
2023/06/08 00:50:08;;;;;;;27.85;14.45;;;;;;;;;;5072415;28;20035;-78
2023/06/08 00:52:33;;;;;;;29.50;14.73;;;;;;;;;;5072449;28;20032;-79
2023/06/08 00:55:00;;;;;;;26.92;13.65;;;;;;;;;;5072412;28;20430;-79
2023/06/08 00:57:28;;;;;;;34.63;15.25;;;;;;;;;;5071897;28;20052;-79
2023/06/08 00:59:53;;;;;;;36.08;14.20;;;;;;;;;;5072443;28;20070;-78
2023/06/08 01:02:19;;;;;;;29.20;15.32;;;;;;;;;;5072203;28;20051;-78
2023/06/08 01:04:45;;;;;;;40.17;15.38;;;;;;;;;;5073540;28;20347;-79
2023/06/08 01:07:49;;;;;;;33.13;16.10;;;;;;;;;;5073597;28;20385;-78
2023/06/08 01:10:36;;;;;;;33.22;15.23;;;;;;;;;;5059827;28;20044;-78
2023/06/08 01:13:10;;;;;;;39.17;15.90;;;;;;;;;;5072523;28;20413;-78
2023/06/08 01:15:40;;;;;;;33.70;15.90;;;;;;;;;;5072410;28;20032;-78
2023/06/08 01:18:07;;;;;;;35.38;15.02;;;;;;;;;;5090981;28;20118;-79
2023/06/08 01:20:46;;;;;;;33.55;16.10;;;;;;;;;;5060004;28;20350;-79
2023/06/08 01:23:37;;;;;;;32.50;15.45;;;;;;;;;;5076274;28;20082;-79
2023/06/08 01:26:03;;;;;;;34.95;15.05;;;;;;;;;;5076013;28;20418;-78
2023/06/08 01:28:30;;;;;;;29.63;14.60;;;;;;;;;;5059443;28;20037;-78
2023/06/08 01:30:56;;;;;;;27.70;14.73;;;;;;;;;;5059368;28;20033;-79
2023/06/08 01:33:23;;;;;;;27.60;14.63;;;;;;;;;;5076005;28;20074;-79
2023/06/08 01:36:21;;;;;;;26.73;14.68;;;;;;;;;;5075671;28;20025;-79
2023/06/08 01:39:01;;;;;;;33.30;15.73;;;;;;;;;;5056630;28;20544;-78
2023/06/08 01:41:50;;;;;;;37.55;15.75;;;;;;;;;;5056679;28;20036;-78
2023/06/08 01:44:16;;;;;;;32.22;15.35;;;;;;;;;;5055715;28;20040;-78
2023/06/08 01:46:42;;;;;;;29.83;16.08;;;;;;;;;;5056158;28;20108;-78
2023/06/08 01:49:08;;;;;;;37.35;15.32;;;;;;;;;;5038142;28;20043;-79
2023/06/08 01:51:33;;;;;;;41.22;17.35;;;;;;;;;;5039284;28;20127;-79
2023/06/08 01:54:03;;;;;;;35.17;16.25;;;;;;;;;;5038859;28;20029;-79
2023/06/08 01:56:32;;;;;;;31.88;17.13;;;;;;;;;;5056569;28;20450;-79
2023/06/08 01:58:57;;;;;;;37.05;16.70;;;;;;;;;;5056695;28;20119;-78
2023/06/08 02:01:23;;;;;;;33.67;17.02;;;;;;;;;;5055463;28;20067;-78
2023/06/08 02:03:48;;;;;;;35.30;16.48;;;;;;;;;;5056599;28;20024;-79
2023/06/08 02:06:13;;;;;;;31.25;17.38;;;;;;;;;;5038718;28;20025;-79
2023/06/08 02:08:39;;;;;;;30.50;15.20;;;;;;;;;;5056332;28;20154;-78
2023/06/08 02:11:05;;;;;;;27.65;15.50;;;;;;;;;;5056364;28;20075;-78
2023/06/08 02:13:34;;;;;;;30.75;15.23;;;;;;;;;;5056313;28;20025;-78
2023/06/08 02:16:00;;;;;;;28.75;15.13;;;;;;;;;;5055322;28;20090;-78
2023/06/08 02:18:26;;;;;;;32.58;16.55;;;;;;;;;;5056418;28;20070;-78
2023/06/08 02:20:52;;;;;;;30.35;16.10;;;;;;;;;;5056473;28;20502;-79
2023/06/08 02:23:17;;;;;;;27.83;15.15;;;;;;;;;;5054752;28;20071;-78
2023/06/08 02:25:43;;;;;;;38.15;16.08;;;;;;;;;;5056107;28;20056;-78
2023/06/08 02:28:08;;;;;;;31.60;16.38;;;;;;;;;;5055476;28;20033;-78
2023/06/08 02:30:34;;;;;;;37.03;16.20;;;;;;;;;;5038534;28;20029;-78
2023/06/08 02:33:00;;;;;;;30.70;16.02;;;;;;;;;;5038172;28;20025;-78
2023/06/08 02:35:25;;;;;;;30.15;15.30;;;;;;;;;;5038380;28;20025;-78
2023/06/08 02:37:51;;;;;;;36.88;15.18;;;;;;;;;;5070040;28;20389;-79
2023/06/08 02:40:17;;;;;;;30.95;16.25;;;;;;;;;;5074589;28;20111;-77
2023/06/08 02:42:42;;;;;;;37.90;15.95;;;;;;;;;;5075891;28;20052;-79
2023/06/08 02:45:08;;;;;;;29.23;14.98;;;;;;;;;;5074696;28;20470;-78
2023/06/08 02:47:33;;;;;;;30.67;14.73;;;;;;;;;;5074659;28;20064;-78
2023/06/08 02:49:59;;;;;;;35.90;16.45;;;;;;;;;;5057743;28;20035;-78
2023/06/08 02:52:24;;;;;;;39.25;15.30;;;;;;;;;;5074146;28;20025;-78
2023/06/08 02:54:50;;;;;;;33.08;16.52;;;;;;;;;;5074405;28;20056;-78
2023/06/08 02:57:15;;;;;;;32.95;15.95;;;;;;;;;;5074225;28;20040;-78
2023/06/08 02:59:41;;;;;;;37.60;16.10;;;;;;;;;;5074505;28;20497;-79
2023/06/08 03:02:07;;;;;;;40.85;16.77;;;;;;;;;;5075415;28;20112;-78
2023/06/08 03:04:33;;;;;;;41.72;15.90;;;;;;;;;;5075407;28;20477;-78
2023/06/08 03:06:58;;;;;;;45.13;16.95;;;;;;;;;;5073956;28;20028;-78
2023/06/08 03:09:24;;;;;;;36.08;15.85;;;;;;;;;;5075222;28;20024;-77
2023/06/08 03:11:51;;;;;;;37.22;17.13;;;;;;;;;;5074065;28;20058;-77
2023/06/08 03:14:18;;;;;;;31.67;15.55;;;;;;;;;;5074238;28;20051;-78
2023/06/08 03:16:44;;;;;;;38.38;15.32;;;;;;;;;;5074000;28;20035;-77
2023/06/08 03:19:10;;;;;;;36.75;15.43;;;;;;;;;;5073920;28;20021;-79
2023/06/08 03:21:36;;;;;;;35.25;15.68;;;;;;;;;;5057123;28;20276;-80
2023/06/08 03:24:03;;;;;;;34.72;15.52;;;;;;;;;;5073711;28;20017;-77
2023/06/08 03:26:28;;;;;;;35.08;15.77;;;;;;;;;;5057106;28;20028;-78
2023/06/08 03:28:53;;;;;;;39.60;15.60;;;;;;;;;;5057317;28;20021;-77
2023/06/08 03:31:20;;;;;;;31.15;14.52;;;;;;;;;;5075095;28;20454;-78
2023/06/08 03:33:46;;;;;;;32.13;14.45;;;;;;;;;;5057112;28;20370;-77
2023/06/08 03:36:11;;;;;;;31.88;15.55;;;;;;;;;;5072967;28;20035;-76
2023/06/08 03:38:37;;;;;;;29.92;15.43;;;;;;;;;;5073501;28;20064;-77
2023/06/08 03:41:02;;;;;;;34.92;14.80;;;;;;;;;;5072808;28;20021;-78
2023/06/08 03:43:27;;;;;;;30.73;14.85;;;;;;;;;;5056966;28;20103;-78
2023/06/08 03:45:53;;;;;;;36.88;16.00;;;;;;;;;;5074810;28;20111;-78
2023/06/08 03:48:19;;;;;;;38.58;15.73;;;;;;;;;;5074772;28;20338;-77
2023/06/08 03:50:44;;;;;;;41.08;15.55;;;;;;;;;;5073404;28;20103;-77
2023/06/08 03:53:11;;;;;;;34.95;14.68;;;;;;;;;;5073520;28;20067;-77
2023/06/08 03:55:36;;;;;;;33.83;15.70;;;;;;;;;;5074329;28;20027;-78
2023/06/08 03:58:02;;;;;;;35.30;15.52;;;;;;;;;;5073338;28;20033;-78
2023/06/08 04:00:29;;;;;;;28.90;15.32;;;;;;;;;;5074712;28;20123;-77
2023/06/08 04:02:55;;;;;;;37.08;15.43;;;;;;;;;;5074573;28;20040;-78
2023/06/08 04:05:20;;;;;;;32.85;15.23;;;;;;;;;;5056479;28;20032;-78
2023/06/08 04:07:50;;;;;;;38.03;14.30;;;;;;;;;;5074309;28;20032;-77
2023/06/08 04:10:16;;;;;;;;;;;;;;;;;;5074737;28;20145;-78
2023/06/08 04:12:41;;;;;;;34.90;15.40;;;;;;;;;;5074476;28;19912;-77
2023/06/08 04:15:07;;;;;;;35.10;15.75;;;;;;;;;;5056600;28;20459;-78
2023/06/08 04:17:33;;;;;;;26.98;16.05;;;;;;;;;;5072897;28;20036;-77
2023/06/08 04:19:58;;;;;;;36.00;15.48;;;;;;;;;;5073870;28;20627;-77
2023/06/08 04:22:24;;;;;;;41.97;14.95;;;;;;;;;;5073308;28;20403;-79
2023/06/08 04:24:49;;;;;;;41.63;15.82;;;;;;;;;;5074243;28;20036;-77
2023/06/08 04:27:16;;;;;;;28.25;14.15;;;;;;;;;;5072709;28;20097;-77
2023/06/08 04:29:41;;;;;;;31.85;13.90;;;;;;;;;;5073891;28;20442;-78
2023/06/08 04:32:07;;;;;;;30.67;13.82;;;;;;;;;;5072346;28;20027;-78
2023/06/08 04:34:33;;;;;;;37.83;14.55;;;;;;;;;;5072211;28;20116;-77
2023/06/08 04:36:59;;;;;;;33.75;13.45;;;;;;;;;;5056431;28;20032;-87
2023/06/08 04:39:26;;;;;;;32.92;12.65;;;;;;;;;;5075378;28;20054;-87
2023/06/08 04:41:53;;;;;;;27.25;13.02;;;;;;;;;;5074358;28;20047;-87
2023/06/08 04:44:20;;;;;;;31.48;13.30;;;;;;;;;;5060211;28;20032;-87
2023/06/08 04:46:48;;;;;;;24.15;13.10;;;;;;;;;;5041906;28;20024;-86
2023/06/08 04:49:16;;;;;;;32.15;12.45;;;;;;;;;;5074513;28;20040;-88
2023/06/08 04:51:46;;;;;;;26.20;12.48;;;;;;;;;;5056389;28;20418;-88
2023/06/08 04:54:13;;;;;;;26.88;12.50;;;;;;;;;;5063539;28;20025;-85
2023/06/08 04:56:41;;;;;;;30.60;11.68;;;;;;;;;;5060395;28;20052;-86
2023/06/08 04:59:11;;;;;;;29.00;11.90;;;;;;;;;;5064439;28;20108;-85
2023/06/08 05:01:37;;;;;;;24.20;11.25;;;;;;;;;;5039972;28;20442;-85
2023/06/08 05:04:07;;;;;;;27.30;11.75;;;;;;;;;;5054479;28;20029;-86
2023/06/08 05:06:35;;;;;;;25.50;11.50;;;;;;;;;;5077226;28;20045;-85
2023/06/08 05:09:01;;;;;;;31.83;12.18;;;;;;;;;;5065246;28;20030;-85
2023/06/08 05:11:27;;;;;;;20.45;10.45;;;;;;;;;;5067975;28;20032;-88
2023/06/08 05:13:52;;;;;;;25.17;10.68;;;;;;;;;;5043381;28;20119;-85
2023/06/08 05:16:18;;;;;;;23.00;11.27;;;;;;;;;;5047794;28;20044;-87
2023/06/08 05:18:44;;;;;;;26.50;10.77;;;;;;;;;;5051326;28;20040;-88
2023/06/08 05:21:09;;;;;;;25.60;10.35;;;;;;;;;;5050993;28;20032;-87
2023/06/08 05:23:35;;;;;;;27.00;10.73;;;;;;;;;;5066378;28;20118;-87
2023/06/08 05:26:01;;;;;;;19.63;10.20;;;;;;;;;;5071493;28;20033;-86
2023/06/08 05:28:26;;;;;;;20.38;10.38;;;;;;;;;;5044292;28;20347;-86
2023/06/08 05:30:53;;;;;;;23.52;10.80;;;;;;;;;;5057977;28;20029;-85
2023/06/08 05:33:18;;;;;;;20.50;10.13;;;;;;;;;;5068451;28;20602;-87
2023/06/08 05:39:13;;;;;;;27.25;10.02;;;;;;;;;;5075787;28;20047;-85
2023/06/08 05:41:41;;;;;;;29.43;10.40;;;;;;;;;;5070339;28;20438;-84
2023/06/08 05:44:31;;;;;;;18.45;9.68;;;;;;;;;;5084020;28;20036;-83
2023/06/08 05:50:15;;;;;;;22.02;10.43;;;;;;;;;;5088236;22;20083;-86
2023/06/08 05:52:40;;;;;;;22.45;10.43;;;;;;;;;;5069019;28;20107;-85
2023/06/08 05:55:06;;;;;;;24.25;10.93;;;;;;;;;;5072830;28;20422;-83
2023/06/08 05:57:32;;;;;;;22.63;10.30;;;;;;;;;;5085707;28;20043;-82
2023/06/08 06:00:11;;;;;;;20.80;9.85;;;;;;;;;;5056574;28;20096;-87
2023/06/08 06:02:38;;;;;;;21.55;10.75;;;;;;;;;;5074256;28;20036;-86
2023/06/08 06:05:05;;;;;;;21.38;10.35;;;;;;;;;;5061008;28;20060;-86
2023/06/08 06:11:51;;;;;;;23.70;11.52;;;;;;;;;;5059254;28;20098;-88
2023/06/08 06:14:16;;;;;;;19.95;10.15;;;;;;;;;;5056753;28;20123;-87
2023/06/08 06:17:02;;;;;;;20.55;10.00;;;;;;;;;;5055954;28;20151;-84
2023/06/08 06:19:33;;;;;;;19.55;9.75;;;;;;;;;;5089407;28;20073;-85
2023/06/08 06:21:58;;;;;;;18.45;10.10;;;;;;;;;;5041749;28;20051;-86
2023/06/08 06:24:36;;;;;;;21.63;10.32;;;;;;;;;;5073373;28;20093;-86
2023/06/08 06:27:02;;;;;;;17.38;8.82;;;;;;;;;;5082856;28;20417;-84
2023/06/08 06:29:27;;;;;;;22.67;9.68;;;;;;;;;;5055542;28;20447;-85
2023/06/08 06:31:59;;;;;;;15.93;9.95;;;;;;;;;;5069553;28;20040;-85
2023/06/08 06:34:46;;;;;;;23.55;10.25;;;;;;;;;;5085096;28;20025;-86
2023/06/08 06:37:15;;;;;;;23.40;10.15;;;;;;;;;;5080129;28;20032;-86
2023/06/08 06:39:40;;;;;;;17.77;9.82;;;;;;;;;;5077516;28;20049;-86
2023/06/08 06:42:12;;;;;;;19.05;9.35;;;;;;;;;;5072378;28;20033;-87
2023/06/08 06:44:38;;;;;;;21.05;10.73;;;;;;;;;;5070399;28;20029;-83
2023/06/08 06:47:04;;;;;;;17.35;9.23;;;;;;;;;;5070615;28;20031;-83
2023/06/08 06:49:29;;;;;;;17.60;9.82;;;;;;;;;;5073285;28;20161;-83
2023/06/08 06:51:58;;;;;;;15.88;8.95;;;;;;;;;;5019871;28;20024;-84
2023/06/08 06:54:23;;;;;;;20.52;9.52;;;;;;;;;;5063008;28;20025;-85
2023/06/08 06:56:51;;;;;;;21.23;9.60;;;;;;;;;;5072237;28;20039;-83
2023/06/08 06:59:20;;;;;;;14.82;9.02;;;;;;;;;;5071642;28;20028;-84
2023/06/08 07:01:46;;;;;;;23.70;9.63;;;;;;;;;;5036246;28;20024;-83
2023/06/08 07:04:15;;;;;;;17.58;9.60;;;;;;;;;;5037240;28;20039;-83
2023/06/08 07:06:42;;;;;;;19.08;9.77;;;;;;;;;;5060268;28;20037;-85
2023/06/08 07:09:09;;;;;;;16.83;8.77;;;;;;;;;;5085478;28;20113;-82
2023/06/08 07:11:35;;;;;;;19.75;9.13;;;;;;;;;;5053121;28;20043;-84
2023/06/08 07:14:00;;;;;;;16.52;8.82;;;;;;;;;;5065703;28;20028;-83
2023/06/08 07:16:26;;;;;;;15.82;8.43;;;;;;;;;;5052705;28;20127;-83
2023/06/08 07:18:51;;;;;;;18.10;8.90;;;;;;;;;;5052670;28;20362;-84
2023/06/08 07:21:19;;;;;;;14.63;8.82;;;;;;;;;;5052847;28;20036;-83
2023/06/08 07:23:46;;;;;;;14.70;8.52;;;;;;;;;;5087989;28;20496;-85
2023/06/08 07:26:11;;;;;;;15.25;8.45;;;;;;;;;;5074773;28;20090;-83
2023/06/08 07:28:37;;;;;;;17.90;9.40;;;;;;;;;;5088757;28;20094;-83
2023/06/08 07:31:03;;;;;;;17.08;8.57;;;;;;;;;;5054004;28;20029;-83
2023/06/08 07:33:28;;;;;;;15.48;9.13;;;;;;;;;;5057042;28;20024;-84
2023/06/08 07:35:54;;;;;;;18.40;9.60;;;;;;;;;;5039252;28;20090;-81
2023/06/08 07:38:20;;;;;;;18.17;9.00;;;;;;;;;;5058677;28;20078;-81
2023/06/08 07:40:45;;;;;;;17.75;8.98;;;;;;;;;;5070759;28;20028;-81
2023/06/08 07:43:10;;;;;;;15.93;9.07;;;;;;;;;;5054468;28;20035;-82
2023/06/08 07:45:36;;;;;;;20.55;9.23;;;;;;;;;;5072193;28;20074;-82
2023/06/08 07:48:02;;;;;;;17.83;9.18;;;;;;;;;;5071778;28;20118;-79
2023/06/08 07:50:27;;;;;;;14.38;8.57;;;;;;;;;;5070370;28;20060;-83
2023/06/08 07:52:54;;;;;;;17.00;8.73;;;;;;;;;;5033133;28;20194;-86
2023/06/08 07:55:21;;;;;;;16.00;8.60;;;;;;;;;;5049219;28;20123;-82
2023/06/08 07:57:48;;;;;;;14.95;8.98;;;;;;;;;;5043361;28;20033;-84
2023/06/08 08:00:14;;;;;;;16.08;8.05;;;;;;;;;;5074062;28;20032;-82
2023/06/08 08:02:41;;;;;;;13.88;8.70;;;;;;;;;;5067196;28;20055;-79
2023/06/08 08:05:08;;;;;;;11.93;8.32;;;;;;;;;;5074806;28;20021;-83
2023/06/08 08:07:35;;;;;;;16.13;8.20;;;;;;;;;;5054883;28;20024;-84
2023/06/08 08:10:01;;;;;;;20.65;8.98;;;;;;;;;;5057328;28;20024;-83
2023/06/08 08:12:27;;;;;;;19.45;9.50;;;;;;;;;;5087985;28;20032;-82
2023/06/08 08:14:52;;;;;;;14.90;9.52;;;;;;;;;;5075607;28;20035;-80
2023/06/08 08:17:18;;;;;;;17.00;9.07;;;;;;;;;;5077520;28;20024;-81
2023/06/08 08:19:44;;;;;;;18.65;8.48;;;;;;;;;;5058996;28;20032;-84
2023/06/08 08:22:09;;;;;;;18.48;8.85;;;;;;;;;;5078197;28;20036;-82
2023/06/08 08:24:36;;;;;;;14.43;8.95;;;;;;;;;;5055051;28;20024;-83
2023/06/08 08:27:02;;;;;;;19.00;8.60;;;;;;;;;;5073628;28;20087;-81
2023/06/08 08:29:31;;;;;;;13.52;8.52;;;;;;;;;;5095914;28;20040;-80
2023/06/08 08:31:57;;;;;;;14.98;9.10;;;;;;;;;;5066307;28;20468;-81
2023/06/08 08:34:22;;;;;;;12.13;8.48;;;;;;;;;;5091812;28;20118;-82
2023/06/08 08:36:47;;;;;;;17.75;8.45;;;;;;;;;;5076201;28;20040;-83
2023/06/08 08:39:19;;;;;;;20.67;9.27;;;;;;;;;;5081761;28;20589;-83
2023/06/08 08:41:45;;;;;;;12.63;8.57;;;;;;;;;;5089849;28;20058;-81
2023/06/08 08:44:16;;;;;;;17.50;8.73;;;;;;;;;;5082936;28;20135;-80
2023/06/08 08:46:42;;;;;;;13.68;9.55;;;;;;;;;;5079023;28;20028;-79
2023/06/08 08:49:14;;;;;;;15.48;8.93;;;;;;;;;;5050620;28;20625;-81
2023/06/08 08:51:40;;;;;;;15.60;8.63;;;;;;;;;;5053695;28;20033;-81
2023/06/08 08:54:07;;;;;;;14.35;8.43;;;;;;;;;;5017508;28;20184;-81
2023/06/08 08:56:44;;;;;;;18.95;9.00;;;;;;;;;;5015904;28;20041;-82
2023/06/08 08:59:09;;;;;;;13.77;8.40;;;;;;;;;;5055618;28;20035;-81
2023/06/08 09:01:36;;;;;;;15.57;8.75;;;;;;;;;;5035387;28;20036;-83
2023/06/08 09:04:03;;;;;;;15.75;8.80;;;;;;;;;;5052985;28;20025;-81
2023/06/08 09:06:29;;;;;;;17.95;9.02;;;;;;;;;;5037316;28;20025;-82
2023/06/08 09:08:55;;;;;;;16.20;8.23;;;;;;;;;;5043392;28;20078;-83
2023/06/08 09:11:21;;;;;;;15.82;8.43;;;;;;;;;;5059525;28;20084;-82
2023/06/08 09:13:46;;;;;;;15.43;9.57;;;;;;;;;;5035455;28;20028;-83
2023/06/08 09:16:14;;;;;;;15.77;9.30;;;;;;;;;;5039760;28;20087;-84
2023/06/08 09:18:41;;;;;;;14.55;8.95;;;;;;;;;;5050988;28;20065;-82
2023/06/08 09:21:30;;;;;;;12.98;8.27;;;;;;;;;;5034602;28;20040;-82
2023/06/08 09:24:18;;;;;;;14.57;8.40;;;;;;;;;;5055998;28;20338;-82
2023/06/08 09:26:48;;;;;;;15.93;8.23;;;;;;;;;;5058456;28;20048;-81
2023/06/08 09:29:42;;;;;;;18.60;8.77;;;;;;;;;;5054468;28;20055;-81
2023/06/08 09:32:13;;;;;;;12.85;8.50;;;;;;;;;;5028699;28;20417;-82
2023/06/08 09:35:04;;;;;;;18.40;8.25;;;;;;;;;;5050017;28;20029;-83
2023/06/08 09:37:33;;;;;;;13.90;8.15;;;;;;;;;;5012369;28;20131;-81
2023/06/08 09:40:00;;;;;;;10.25;7.55;;;;;;;;;;5033288;28;20097;-83
2023/06/08 09:42:42;;;;;;;15.23;7.95;;;;;;;;;;5033873;28;20052;-79
2023/06/08 09:45:15;;;;;;;13.38;7.50;;;;;;;;;;5032541;28;20085;-81
2023/06/08 09:47:40;;;;;;;14.48;7.10;;;;;;;;;;5050244;28;20040;-81
2023/06/08 09:50:07;;;;;;;11.00;7.05;;;;;;;;;;5062499;28;20040;-82
2023/06/08 09:52:36;;;;;;;11.27;7.25;;;;;;;;;;5070054;28;20342;-82
2023/06/08 09:55:05;;;;;;;10.45;6.68;;;;;;;;;;5061999;28;20533;-82
2023/06/08 09:57:38;;;;;;;11.73;6.60;;;;;;;;;;5072259;28;20127;-81
2023/06/08 10:00:17;;;;;;;9.38;6.28;;;;;;;;;;5054193;28;20060;-81
2023/06/08 10:02:55;;;;;;;13.30;6.32;;;;;;;;;;5073267;28;20024;-81
2023/06/08 10:05:22;;;;;;;11.47;6.70;;;;;;;;;;5058185;28;20458;-83
2023/06/08 10:07:48;;;;;;;10.73;6.05;;;;;;;;;;5055223;28;20329;-80
2023/06/08 10:10:29;;;;;;;12.18;6.07;;;;;;;;;;5037850;28;20510;-86
2023/06/08 10:12:56;;;;;;;10.40;6.00;;;;;;;;;;5057386;28;20090;-81
2023/06/08 10:15:22;;;;;;;12.65;7.03;;;;;;;;;;5064204;28;20039;-83
2023/06/08 10:17:47;;;;;;;13.20;6.03;;;;;;;;;;5057311;28;20036;-83
2023/06/08 10:20:16;;;;;;;10.02;5.85;;;;;;;;;;5045588;28;20162;-81
2023/06/08 10:22:42;;;;;;;8.98;5.90;;;;;;;;;;5037791;28;20035;-82
2023/06/08 10:25:08;;;;;;;7.82;5.30;;;;;;;;;;5093998;28;20025;-81
2023/06/08 10:27:33;;;;;;;9.13;5.68;;;;;;;;;;5057776;28;20025;-83
2023/06/08 10:30:03;;;;;;;15.10;6.32;;;;;;;;;;5041339;28;20455;-83
2023/06/08 10:32:42;;;;;;;10.50;5.72;;;;;;;;;;5078611;28;20036;-82
2023/06/08 10:35:12;;;;;;;9.80;5.45;;;;;;;;;;5052098;28;20043;-83
2023/06/08 10:37:44;;;;;;;11.77;5.53;;;;;;;;;;5057689;28;20052;-85
2023/06/08 10:40:11;;;;;;;10.25;5.32;;;;;;;;;;5062035;28;20162;-84
2023/06/08 10:43:02;;;;;;;8.88;4.95;;;;;;;;;;5073328;28;20447;-82
2023/06/08 10:45:39;;;;;;;7.45;5.15;;;;;;;;;;5054464;28;20094;-80
2023/06/08 10:48:10;;;;;;;11.68;5.22;;;;;;;;;;5083642;28;20032;-82
2023/06/08 10:50:37;;;;;;;10.48;4.82;;;;;;;;;;5073770;28;20032;-83
2023/06/08 10:53:03;;;;;;;9.43;4.93;;;;;;;;;;5074969;28;20024;-81
2023/06/08 10:55:31;;;;;;;8.43;4.70;;;;;;;;;;5079372;28;20126;-83
2023/06/08 10:58:14;;;;;;;11.00;4.80;;;;;;;;;;5078263;28;20046;-83
2023/06/08 11:00:44;;;;;;;5.47;4.47;;;;;;;;;;5071641;28;20378;-81
2023/06/08 11:03:11;;;;;;;6.85;4.30;;;;;;;;;;5054520;28;20025;-82
2023/06/08 11:05:38;;;;;;;8.13;4.57;;;;;;;;;;5033890;28;20024;-81
2023/06/08 11:08:04;;;;;;;9.18;4.32;;;;;;;;;;5066875;28;20032;-83
2023/06/08 11:10:32;;;;;;;5.93;4.20;;;;;;;;;;5018713;28;20427;-82
2023/06/08 11:13:08;;;;;;;7.88;4.13;;;;;;;;;;5042974;28;20024;-83
2023/06/08 11:15:35;;;;;;;8.45;4.20;;;;;;;;;;5058165;28;20024;-81
2023/06/08 11:18:01;;;;;;;5.82;4.07;;;;;;;;;;5059746;28;20028;-83
2023/06/08 11:20:27;;;;;;;5.32;3.90;;;;;;;;;;5034798;28;20126;-81
2023/06/08 11:22:53;;;;;;;7.47;4.07;;;;;;;;;;5065957;28;20035;-80
2023/06/08 11:25:19;;;;;;;7.38;4.22;;;;;;;;;;5057405;28;20020;-80
2023/06/08 11:27:46;;;;;;;8.68;4.15;;;;;;;;;;5064636;28;20111;-81
2023/06/08 11:30:17;;;;;;;6.95;4.10;;;;;;;;;;5052257;28;20122;-80
2023/06/08 11:32:47;;;;;;;9.52;4.18;;;;;;;;;;5068046;28;20462;-81
2023/06/08 11:35:13;;;;;;;6.28;4.40;;;;;;;;;;5068330;28;20059;-81
2023/06/08 11:37:41;;;;;;;9.38;4.05;;;;;;;;;;5069853;28;20442;-82
2023/06/08 11:40:10;;;;;;;7.00;3.85;;;;;;;;;;5070929;28;20043;-82
2023/06/08 11:42:37;;;;;;;5.82;3.95;;;;;;;;;;5086514;28;20020;-83
2023/06/08 11:45:04;;;;;;;8.40;4.68;;;;;;;;;;5051221;28;20054;-83
2023/06/08 11:47:31;;;;;;;9.98;5.05;;;;;;;;;;5051465;28;20497;-84
2023/06/08 11:49:59;;;;;;;10.65;4.18;;;;;;;;;;5049022;28;20048;-81
2023/06/08 11:52:25;;;;;;;7.80;4.28;;;;;;;;;;5035525;28;20024;-83
2023/06/08 11:54:54;;;;;;;10.73;4.30;;;;;;;;;;5050525;28;20551;-82
2023/06/08 11:57:21;;;;;;;8.00;3.93;;;;;;;;;;5085834;28;20085;-83
2023/06/08 11:59:46;;;;;;;7.70;4.00;;;;;;;;;;5070262;28;20279;-82
2023/06/08 12:02:12;;;;;;;6.68;4.00;;;;;;;;;;5051437;28;20074;-82
2023/06/08 12:04:37;;;;;;;9.85;3.97;;;;;;;;;;5069166;28;20107;-83
2023/06/08 12:07:12;;;;;;;7.72;4.03;;;;;;;;;;5053520;28;20016;-83
2023/06/08 12:09:38;;;;;;;6.18;3.90;;;;;;;;;;5088140;28;20123;-83
2023/06/08 12:12:11;;;;;;;8.65;3.90;;;;;;;;;;5074201;28;20064;-84
2023/06/08 12:14:42;;;;;;;7.60;3.95;;;;;;;;;;5090213;28;20120;-83
2023/06/08 12:17:07;;;;;;;4.72;3.72;;;;;;;;;;5073417;28;20036;-84
2023/06/08 12:19:34;;;;;;;9.80;3.92;;;;;;;;;;5073554;28;20020;-84
2023/06/08 12:21:59;;;;;;;8.05;4.28;;;;;;;;;;5072741;28;20362;-84
2023/06/08 12:24:25;;;;;;;7.07;3.88;;;;;;;;;;5074178;28;20029;-83
2023/06/08 12:26:51;;;;;;;8.85;4.10;;;;;;;;;;5057339;28;20434;-84
2023/06/08 12:29:18;;;;;;;10.43;4.18;;;;;;;;;;5057895;28;20047;-83
2023/06/08 12:31:43;;;;;;;6.35;3.97;;;;;;;;;;5057284;28;20465;-84
2023/06/08 12:34:08;;;;;;;7.57;4.25;;;;;;;;;;5074659;28;20020;-82
2023/06/08 12:36:34;;;;;;;6.85;4.10;;;;;;;;;;5094916;28;20020;-83
2023/06/08 12:39:01;;;;;;;7.43;4.20;;;;;;;;;;5078620;28;20021;-84
2023/06/08 12:41:26;;;;;;;6.85;3.85;;;;;;;;;;5078351;28;20358;-82
2023/06/08 12:43:52;;;;;;;5.97;4.10;;;;;;;;;;5079268;28;20022;-84
2023/06/08 12:46:21;;;;;;;6.65;4.28;;;;;;;;;;5078186;28;20055;-83
2023/06/08 12:48:47;;;;;;;7.05;4.28;;;;;;;;;;5080318;28;20442;-83
2023/06/08 12:51:16;;;;;;;8.13;4.30;;;;;;;;;;5090186;28;20139;-83
2023/06/08 12:53:42;;;;;;;11.70;6.80;;;;;;;;;;5056029;28;20081;-83
2023/06/08 12:56:07;;;;;;;6.45;4.18;;;;;;;;;;5053543;28;20478;-83
2023/06/08 12:58:33;;;;;;;8.65;4.35;;;;;;;;;;5055565;28;20017;-83
2023/06/08 13:00:58;;;;;;;5.72;3.92;;;;;;;;;;5055477;28;20025;-83
2023/06/08 13:03:24;;;;;;;7.75;4.85;;;;;;;;;;5055923;28;20384;-83
2023/06/08 13:05:51;;;;;;;7.07;4.35;;;;;;;;;;5055920;28;20442;-84
2023/06/08 13:08:16;;;;;;;7.10;3.90;;;;;;;;;;5055739;28;20029;-84
2023/06/08 13:10:42;;;;;;;7.22;4.15;;;;;;;;;;5055659;28;20029;-83
2023/06/08 13:13:07;;;;;;;5.47;3.90;;;;;;;;;;5075398;28;20033;-82
2023/06/08 13:15:32;;;;;;;4.28;3.70;;;;;;;;;;5042742;28;20412;-84
2023/06/08 13:17:58;;;;;;;7.13;4.18;;;;;;;;;;5076367;28;20059;-84
2023/06/08 13:20:24;;;;;;;5.43;4.03;;;;;;;;;;5060050;28;20085;-89
2023/06/08 13:22:50;;;;;;;9.90;4.22;;;;;;;;;;5077396;28;20373;-89
2023/06/08 13:25:16;;;;;;;6.22;4.00;;;;;;;;;;5078280;28;20029;-90
2023/06/08 13:27:43;;;;;;;9.40;4.10;;;;;;;;;;5078024;28;20085;-89
2023/06/08 13:30:09;;;;;;;6.78;4.00;;;;;;;;;;5060298;28;20024;-93
2023/06/08 13:32:34;;;;;;;9.63;4.40;;;;;;;;;;5076803;28;20070;-90
2023/06/08 13:35:00;;;;;;;7.75;4.20;;;;;;;;;;5043166;28;20020;-89
2023/06/08 13:37:26;;;;;;;9.48;4.30;;;;;;;;;;5059785;28;20040;-89
2023/06/08 13:39:51;;;;;;;8.38;4.03;;;;;;;;;;5060927;28;20025;-88
2023/06/08 13:42:16;;;;;;;9.02;4.15;;;;;;;;;;5076507;28;20040;-90
2023/06/08 13:44:46;;;;;;;7.55;4.40;;;;;;;;;;5076206;28;20449;-90
2023/06/08 13:47:11;;;;;;;6.82;4.18;;;;;;;;;;5076681;28;20436;-91
2023/06/08 13:49:37;;;;;;;7.63;4.50;;;;;;;;;;5093105;28;20048;-91
2023/06/08 13:52:02;;;;;;;5.88;4.35;;;;;;;;;;5076469;28;20095;-90
2023/06/08 13:54:27;;;;;;;7.63;4.15;;;;;;;;;;5059827;28;20373;-89
2023/06/08 13:56:53;;;;;;;9.43;4.10;;;;;;;;;;5043048;28;20030;-89
2023/06/08 13:59:18;;;;;;;9.38;4.35;;;;;;;;;;5058884;28;20043;-87
2023/06/08 14:01:44;;;;;;;5.78;4.40;;;;;;;;;;5059758;28;20103;-90
2023/06/08 14:04:09;;;;;;;9.38;4.50;;;;;;;;;;5075642;28;20024;-91
2023/06/08 14:06:35;;;;;;;7.82;4.30;;;;;;;;;;5059548;28;20028;-94
2023/06/08 14:09:01;;;;;;;5.53;3.88;;;;;;;;;;5042532;28;20035;-93
2023/06/08 14:11:27;;;;;;;8.45;4.28;;;;;;;;;;5075524;28;20032;-85
2023/06/08 14:13:52;;;;;;;6.40;4.38;;;;;;;;;;5092561;28;20358;-91
2023/06/08 14:16:19;;;;;;;6.97;4.13;;;;;;;;;;5059790;28;20051;-83
2023/06/08 14:18:45;;;;;;;5.80;4.22;;;;;;;;;;5061336;28;20024;-90
2023/06/08 14:21:12;;;;;;;6.60;4.22;;;;;;;;;;5061440;28;20043;-90
2023/06/08 14:23:39;;;;;;;6.80;4.50;;;;;;;;;;5076855;28;20025;-90
2023/06/08 14:26:04;;;;;;;10.88;4.47;;;;;;;;;;5059222;28;20025;-91
2023/06/08 14:28:30;;;;;;;9.27;4.38;;;;;;;;;;5059573;28;20035;-88
2023/06/08 14:30:55;;;;;;;7.25;4.50;;;;;;;;;;5059827;28;20437;-87
2023/06/08 14:33:21;;;;;;;8.77;4.50;;;;;;;;;;5059494;28;20021;-89
2023/06/08 14:35:46;;;;;;;8.77;5.05;;;;;;;;;;5043093;28;20082;-89
2023/06/08 14:38:12;;;;;;;8.85;4.32;;;;;;;;;;5059576;28;20094;-90
2023/06/08 14:40:38;;;;;;;7.53;4.38;;;;;;;;;;5062205;28;20430;-90
2023/06/08 14:43:04;;;;;;;11.02;4.38;;;;;;;;;;5059297;28;20028;-91